sensor_id;sensor_type;location;lat;lon;timestamp;pressure;altitude;pressure_sealevel;temperature;humidity
13709;BME280;54933;51.908;7.730;2023-01-10T00:00:31;100385.69;;;20.63;76.50
13709;BME280;54933;51.908;7.730;2023-01-10T00:03:04;100388.38;;;20.63;76.51
13709;BME280;54933;51.908;7.730;2023-01-10T00:05:30;100395.66;;;20.63;76.40
13709;BME280;54933;51.908;7.730;2023-01-10T00:07:55;100396.47;;;20.63;76.22
13709;BME280;54933;51.908;7.730;2023-01-10T00:10:21;100404.59;;;20.63;76.34
13709;BME280;54933;51.908;7.730;2023-01-10T00:12:46;100409.97;;;20.63;76.15
13709;BME280;54933;51.908;7.730;2023-01-10T00:15:34;100415.38;;;20.63;76.35
13709;BME280;54933;51.908;7.730;2023-01-10T00:18:00;100428.88;;;20.63;76.33
13709;BME280;54933;51.908;7.730;2023-01-10T00:20:25;100431.56;;;20.63;76.27
13709;BME280;54933;51.908;7.730;2023-01-10T00:22:50;100428.88;;;20.63;76.17
13709;BME280;54933;51.908;7.730;2023-01-10T00:25:16;100439.69;;;20.63;76.30
13709;BME280;54933;51.908;7.730;2023-01-10T00:27:49;100442.38;;;20.63;76.19
13709;BME280;54933;51.908;7.730;2023-01-10T00:30:19;100444.25;;;20.63;76.34
13709;BME280;54933;51.908;7.730;2023-01-10T00:32:44;100453.19;;;20.63;76.34
13709;BME280;54933;51.908;7.730;2023-01-10T00:35:10;100453.19;;;20.63;76.25
13709;BME280;54933;51.908;7.730;2023-01-10T00:37:37;100463.97;;;20.63;76.31
13709;BME280;54933;51.908;7.730;2023-01-10T00:40:03;100473.13;;;20.62;76.29
13709;BME280;54933;51.908;7.730;2023-01-10T00:42:31;100480.16;;;20.63;76.28
13709;BME280;54933;51.908;7.730;2023-01-10T00:45:15;100480.16;;;20.63;76.12
13709;BME280;54933;51.908;7.730;2023-01-10T00:47:40;100487.44;;;20.63;76.06
13709;BME280;54933;51.908;7.730;2023-01-10T00:50:06;100493.66;;;20.63;76.15
13709;BME280;54933;51.908;7.730;2023-01-10T00:52:32;100500.94;;;20.63;75.99
13709;BME280;54933;51.908;7.730;2023-01-10T00:54:58;100504.47;;;20.63;76.04
13709;BME280;54933;51.908;7.730;2023-01-10T00:57:23;100516.09;;;20.64;76.08
13709;BME280;54933;51.908;7.730;2023-01-10T00:59:48;100514.22;;;20.64;76.00
13709;BME280;54933;51.908;7.730;2023-01-10T01:02:13;100517.97;;;20.63;76.10
13709;BME280;54933;51.908;7.730;2023-01-10T01:04:39;100517.97;;;20.63;76.16
13709;BME280;54933;51.908;7.730;2023-01-10T01:07:04;100523.38;;;20.63;76.02
13709;BME280;54933;51.908;7.730;2023-01-10T01:09:29;100539.56;;;20.63;76.15
13709;BME280;54933;51.908;7.730;2023-01-10T01:11:55;100547.66;;;20.63;75.99
13709;BME280;54933;51.908;7.730;2023-01-10T01:14:21;100555.75;;;20.63;76.10
13709;BME280;54933;51.908;7.730;2023-01-10T01:16:47;100562.00;;;20.64;75.99
13709;BME280;54933;51.908;7.730;2023-01-10T01:19:12;100570.31;;;20.62;76.13
13709;BME280;54933;51.908;7.730;2023-01-10T01:21:37;100566.56;;;20.63;75.86
13709;BME280;54933;51.908;7.730;2023-01-10T01:24:03;100571.13;;;20.63;76.10
13709;BME280;54933;51.908;7.730;2023-01-10T01:26:28;100582.75;;;20.63;76.01
13709;BME280;54933;51.908;7.730;2023-01-10T01:28:54;100598.13;;;20.63;76.02
13709;BME280;54933;51.908;7.730;2023-01-10T01:31:19;100595.41;;;20.63;75.75
13709;BME280;54933;51.908;7.730;2023-01-10T01:33:45;100604.34;;;20.63;75.84
13709;BME280;54933;51.908;7.730;2023-01-10T01:36:11;100611.41;;;20.64;75.99
13709;BME280;54933;51.908;7.730;2023-01-10T01:38:37;100611.41;;;20.64;75.92
13709;BME280;54933;51.908;7.730;2023-01-10T01:41:02;100620.56;;;20.63;75.99
13709;BME280;54933;51.908;7.730;2023-01-10T01:43:29;100614.31;;;20.63;75.16
13709;BME280;54933;51.908;7.730;2023-01-10T01:45:58;100620.56;;;20.63;75.80
13709;BME280;54933;51.908;7.730;2023-01-10T01:48:29;100624.91;;;20.64;75.67
13709;BME280;54933;51.908;7.730;2023-01-10T01:51:17;100625.97;;;20.63;75.86
13709;BME280;54933;51.908;7.730;2023-01-10T01:53:59;100625.97;;;20.63;75.95
13709;BME280;54933;51.908;7.730;2023-01-10T01:59:22;100634.06;;;20.63;75.71
13709;BME280;54933;51.908;7.730;2023-01-10T02:01:50;100636.75;;;20.63;75.63
13709;BME280;54933;51.908;7.730;2023-01-10T02:04:22;100633.22;;;20.63;75.75
13709;BME280;54933;51.908;7.730;2023-01-10T02:06:50;100635.13;;;20.62;75.84
13709;BME280;54933;51.908;7.730;2023-01-10T02:09:27;100635.91;;;20.63;75.79
13709;BME280;54933;51.908;7.730;2023-01-10T02:11:54;100636.75;;;20.63;75.78
13709;BME280;54933;51.908;7.730;2023-01-10T02:14:22;100647.56;;;20.63;75.64
13709;BME280;54933;51.908;7.730;2023-01-10T02:16:48;100644.03;;;20.63;75.65
13709;BME280;54933;51.908;7.730;2023-01-10T02:19:23;100643.22;;;20.62;75.53
13709;BME280;54933;51.908;7.730;2023-01-10T02:33:50;100667.50;;;20.62;75.59
13709;BME280;54933;51.908;7.730;2023-01-10T02:36:43;100662.13;;;20.62;75.63
13709;BME280;54933;51.908;7.730;2023-01-10T02:39:23;100657.53;;;20.63;75.75
13709;BME280;54933;51.908;7.730;2023-01-10T02:42:03;100662.13;;;20.62;75.67
13709;BME280;54933;51.908;7.730;2023-01-10T02:47:17;100666.44;;;20.63;75.76
13709;BME280;54933;51.908;7.730;2023-01-10T02:49:45;100670.00;;;20.64;75.38
13709;BME280;54933;51.908;7.730;2023-01-10T02:52:13;100669.16;;;20.63;75.58
13709;BME280;54933;51.908;7.730;2023-01-10T02:54:41;100668.31;;;20.63;75.74
13709;BME280;54933;51.908;7.730;2023-01-10T02:59:43;100669.16;;;20.63;75.61
13709;BME280;54933;51.908;7.730;2023-01-10T03:07:54;100681.59;;;20.64;75.48
13709;BME280;54933;51.908;7.730;2023-01-10T03:10:33;100695.09;;;20.64;75.44
13709;BME280;54933;51.908;7.730;2023-01-10T03:13:06;100695.31;;;20.63;75.63
13709;BME280;54933;51.908;7.730;2023-01-10T03:15:36;100696.16;;;20.63;75.71
13709;BME280;54933;51.908;7.730;2023-01-10T03:18:06;100690.75;;;20.63;75.46
13709;BME280;54933;51.908;7.730;2023-01-10T03:20:35;100694.28;;;20.64;75.45
13709;BME280;54933;51.908;7.730;2023-01-10T03:23:03;100712.34;;;20.63;75.52
13709;BME280;54933;51.908;7.730;2023-01-10T03:25:33;100708.59;;;20.64;75.40
13709;BME280;54933;51.908;7.730;2023-01-10T03:28:04;100722.94;;;20.65;75.73
13709;BME280;54933;51.908;7.730;2023-01-10T03:30:39;100730.19;;;20.64;75.60
13709;BME280;54933;51.908;7.730;2023-01-10T03:33:06;100727.50;;;20.64;75.43
13709;BME280;54933;51.908;7.730;2023-01-10T03:38:34;100738.06;;;20.66;75.35
13709;BME280;54933;51.908;7.730;2023-01-10T03:41:06;100746.41;;;20.64;75.32
13709;BME280;54933;51.908;7.730;2023-01-10T03:46:48;100749.09;;;20.64;75.39
13709;BME280;54933;51.908;7.730;2023-01-10T03:49:16;100754.50;;;20.64;75.29
13709;BME280;54933;51.908;7.730;2023-01-10T03:51:43;100752.63;;;20.65;75.48
13709;BME280;54933;51.908;7.730;2023-01-10T03:54:10;100754.50;;;20.64;75.27
13709;BME280;54933;51.908;7.730;2023-01-10T03:56:47;100758.03;;;20.65;75.26
13709;BME280;54933;51.908;7.730;2023-01-10T03:59:15;100758.88;;;20.65;75.24
13709;BME280;54933;51.908;7.730;2023-01-10T04:01:40;100763.44;;;20.65;75.29
13709;BME280;54933;51.908;7.730;2023-01-10T04:04:05;100766.97;;;20.65;75.22
13709;BME280;54933;51.908;7.730;2023-01-10T04:06:31;100770.47;;;20.66;75.35
13709;BME280;54933;51.908;7.730;2023-01-10T04:08:56;100778.56;;;20.66;75.39
13709;BME280;54933;51.908;7.730;2023-01-10T04:11:21;100780.47;;;20.65;75.38
13709;BME280;54933;51.908;7.730;2023-01-10T04:13:46;100791.28;;;20.65;75.22
13709;BME280;54933;51.908;7.730;2023-01-10T04:16:12;100791.28;;;20.65;75.20
13709;BME280;54933;51.908;7.730;2023-01-10T04:18:38;100799.16;;;20.67;75.38
13709;BME280;54933;51.908;7.730;2023-01-10T04:21:03;100800.19;;;20.66;75.17
13709;BME280;54933;51.908;7.730;2023-01-10T04:23:28;100802.88;;;20.66;75.21
13709;BME280;54933;51.908;7.730;2023-01-10T04:25:54;100820.75;;;20.67;75.09
13709;BME280;54933;51.908;7.730;2023-01-10T04:28:19;100814.50;;;20.66;75.24
13709;BME280;54933;51.908;7.730;2023-01-10T04:30:44;100819.91;;;20.66;75.23
13709;BME280;54933;51.908;7.730;2023-01-10T04:33:09;100819.91;;;20.66;75.24
13709;BME280;54933;51.908;7.730;2023-01-10T04:35:36;100823.66;;;20.65;75.29
13709;BME280;54933;51.908;7.730;2023-01-10T04:38:02;100833.63;;;20.65;74.89
13709;BME280;54933;51.908;7.730;2023-01-10T04:40:27;100842.34;;;20.67;75.00
13709;BME280;54933;51.908;7.730;2023-01-10T04:42:52;100849.63;;;20.66;75.00
13709;BME280;54933;51.908;7.730;2023-01-10T04:45:17;100847.75;;;20.67;75.00
13709;BME280;54933;51.908;7.730;2023-01-10T04:47:49;100837.75;;;20.67;75.16
13709;BME280;54933;51.908;7.730;2023-01-10T04:50:15;100840.47;;;20.67;75.38
13709;BME280;54933;51.908;7.730;2023-01-10T04:52:40;100843.16;;;20.67;74.92
13709;BME280;54933;51.908;7.730;2023-01-10T04:55:07;100845.06;;;20.67;75.09
13709;BME280;54933;51.908;7.730;2023-01-10T04:57:33;100849.41;;;20.68;74.88
13709;BME280;54933;51.908;7.730;2023-01-10T04:59:58;100849.41;;;20.68;74.91
13709;BME280;54933;51.908;7.730;2023-01-10T05:02:23;100852.09;;;20.68;75.03
13709;BME280;54933;51.908;7.730;2023-01-10T05:04:49;100842.34;;;20.67;75.02
13709;BME280;54933;51.908;7.730;2023-01-10T05:07:14;100850.25;;;20.68;75.12
13709;BME280;54933;51.908;7.730;2023-01-10T05:09:39;100850.25;;;20.68;75.14
13709;BME280;54933;51.908;7.730;2023-01-10T05:12:04;100853.56;;;20.70;75.05
13709;BME280;54933;51.908;7.730;2023-01-10T05:14:30;100852.50;;;20.71;74.88
13709;BME280;54933;51.908;7.730;2023-01-10T05:16:55;100863.31;;;20.71;75.14
13709;BME280;54933;51.908;7.730;2023-01-10T05:19:20;100858.13;;;20.70;74.82
13709;BME280;54933;51.908;7.730;2023-01-10T05:21:46;100864.38;;;20.70;74.84
13709;BME280;54933;51.908;7.730;2023-01-10T05:24:11;100862.69;;;20.69;75.11
13709;BME280;54933;51.908;7.730;2023-01-10T05:26:36;100873.06;;;20.72;75.13
13709;BME280;54933;51.908;7.730;2023-01-10T05:29:01;100871.63;;;20.70;75.06
13709;BME280;54933;51.908;7.730;2023-01-10T05:31:27;100881.59;;;20.69;75.08
13709;BME280;54933;51.908;7.730;2023-01-10T05:33:52;100883.47;;;20.69;75.04
13709;BME280;54933;51.908;7.730;2023-01-10T05:36:18;100881.81;;;20.68;74.89
13709;BME280;54933;51.908;7.730;2023-01-10T05:38:44;100886.38;;;20.67;75.00
13709;BME280;54933;51.908;7.730;2023-01-10T05:41:09;100893.88;;;20.65;74.57
13709;BME280;54933;51.908;7.730;2023-01-10T05:43:35;100903.63;;;20.66;74.51
13709;BME280;54933;51.908;7.730;2023-01-10T05:46:01;100908.19;;;20.66;74.49
13709;BME280;54933;51.908;7.730;2023-01-10T05:48:26;100907.97;;;20.67;74.68
13709;BME280;54933;51.908;7.730;2023-01-10T05:50:51;100906.09;;;20.68;74.78
13709;BME280;54933;51.908;7.730;2023-01-10T05:53:18;100913.38;;;20.67;74.94
13709;BME280;54933;51.908;7.730;2023-01-10T05:55:43;100912.97;;;20.64;74.85
13709;BME280;54933;51.908;7.730;2023-01-10T05:58:16;100902.78;;;20.66;74.09
13709;BME280;54933;51.908;7.730;2023-01-10T06:00:41;100907.97;;;20.67;74.57
13709;BME280;54933;51.908;7.730;2023-01-10T06:03:06;100918.75;;;20.67;75.01
13709;BME280;54933;51.908;7.730;2023-01-10T06:05:31;100922.53;;;20.66;75.05
13709;BME280;54933;51.908;7.730;2023-01-10T06:07:57;100934.16;;;20.67;75.41
13709;BME280;54933;51.908;7.730;2023-01-10T06:10:22;100934.97;;;20.67;75.18
13709;BME280;54933;51.908;7.730;2023-01-10T06:12:47;100936.66;;;20.68;75.82
13709;BME280;54933;51.908;7.730;2023-01-10T06:15:14;100942.03;;;20.68;75.74
13709;BME280;54933;51.908;7.730;2023-01-10T06:17:39;100948.28;;;20.69;75.97
13709;BME280;54933;51.908;7.730;2023-01-10T06:20:05;100944.75;;;20.68;75.87
13709;BME280;54933;51.908;7.730;2023-01-10T06:22:30;100955.53;;;20.68;76.04
13709;BME280;54933;51.908;7.730;2023-01-10T06:24:55;100946.59;;;20.68;76.55
13709;BME280;54933;51.908;7.730;2023-01-10T06:27:21;100961.97;;;20.67;75.95
13709;BME280;54933;51.908;7.730;2023-01-10T06:29:46;100961.97;;;20.67;75.98
13709;BME280;54933;51.908;7.730;2023-01-10T06:32:11;100963.03;;;20.66;76.10
13709;BME280;54933;51.908;7.730;2023-01-10T06:34:37;100963.03;;;20.66;76.02
13709;BME280;54933;51.908;7.730;2023-01-10T06:37:02;100964.06;;;20.65;75.73
13709;BME280;54933;51.908;7.730;2023-01-10T06:39:27;100970.28;;;20.66;75.57
13709;BME280;54933;51.908;7.730;2023-01-10T06:41:53;100965.72;;;20.66;75.50
13709;BME280;54933;51.908;7.730;2023-01-10T06:44:18;100977.34;;;20.67;75.88
13709;BME280;54933;51.908;7.730;2023-01-10T06:46:43;100968.00;;;20.69;75.75
13709;BME280;54933;51.908;7.730;2023-01-10T06:49:08;100959.25;;;20.02;71.24
13709;BME280;54933;51.908;7.730;2023-01-10T06:51:34;100976.94;;;20.24;69.20
13709;BME280;54933;51.908;7.730;2023-01-10T06:53:59;100992.09;;;20.38;69.60
13709;BME280;54933;51.908;7.730;2023-01-10T06:56:24;100993.56;;;20.47;70.48
13709;BME280;54933;51.908;7.730;2023-01-10T06:58:50;101006.44;;;20.52;71.29
13709;BME280;54933;51.908;7.730;2023-01-10T07:01:18;101012.25;;;20.55;71.76
13709;BME280;54933;51.908;7.730;2023-01-10T07:03:44;101020.97;;;20.57;72.21
13709;BME280;54933;51.908;7.730;2023-01-10T07:06:10;101023.25;;;20.60;72.50
13709;BME280;54933;51.908;7.730;2023-01-10T07:08:43;101016.59;;;20.63;72.67
13709;BME280;54933;51.908;7.730;2023-01-10T07:11:10;101002.91;;;20.64;72.72
13709;BME280;54933;51.908;7.730;2023-01-10T07:13:35;101015.16;;;20.67;72.80
13709;BME280;54933;51.908;7.730;2023-01-10T07:16:06;101032.16;;;20.67;72.89
13709;BME280;54933;51.908;7.730;2023-01-10T07:18:35;101036.56;;;20.68;73.02
13709;BME280;54933;51.908;7.730;2023-01-10T07:21:01;101030.53;;;20.66;72.52
13709;BME280;54933;51.908;7.730;2023-01-10T07:23:28;101026.59;;;20.69;72.32
13709;BME280;54933;51.908;7.730;2023-01-10T07:25:55;101022.00;;;20.69;72.62
13709;BME280;54933;51.908;7.730;2023-01-10T07:28:21;101038.00;;;20.71;72.45
13709;BME280;54933;51.908;7.730;2023-01-10T07:30:46;101038.84;;;20.71;72.76
13709;BME280;54933;51.908;7.730;2023-01-10T07:33:11;101042.16;;;20.73;72.79
13709;BME280;54933;51.908;7.730;2023-01-10T07:35:37;101035.09;;;20.72;72.60
13709;BME280;54933;51.908;7.730;2023-01-10T07:38:03;101045.50;;;20.75;72.77
13709;BME280;54933;51.908;7.730;2023-01-10T07:40:28;101064.41;;;20.75;72.80
13709;BME280;54933;51.908;7.730;2023-01-10T07:42:57;101054.19;;;20.77;72.58
13709;BME280;54933;51.908;7.730;2023-01-10T07:45:24;101072.09;;;20.78;72.53
13709;BME280;54933;51.908;7.730;2023-01-10T07:47:55;101082.66;;;20.80;72.85
13709;BME280;54933;51.908;7.730;2023-01-10T07:50:20;101085.38;;;20.80;72.51
13709;BME280;54933;51.908;7.730;2023-01-10T07:52:45;101070.19;;;20.79;72.58
13709;BME280;54933;51.908;7.730;2023-01-10T07:55:11;101079.97;;;20.80;72.65
13709;BME280;54933;51.908;7.730;2023-01-10T07:57:36;101075.38;;;20.80;72.66
13709;BME280;54933;51.908;7.730;2023-01-10T08:00:02;101077.06;;;20.81;72.85
13709;BME280;54933;51.908;7.730;2023-01-10T08:02:27;101091.59;;;20.80;72.83
13709;BME280;54933;51.908;7.730;2023-01-10T08:04:53;101089.94;;;20.79;72.85
13709;BME280;54933;51.908;7.730;2023-01-10T08:07:18;101096.19;;;20.80;72.67
13709;BME280;54933;51.908;7.730;2023-01-10T08:09:43;101104.28;;;20.80;72.91
13709;BME280;54933;51.908;7.730;2023-01-10T08:12:08;101101.59;;;20.80;72.89
13709;BME280;54933;51.908;7.730;2023-01-10T08:14:33;101108.63;;;20.81;72.88
13709;BME280;54933;51.908;7.730;2023-01-10T08:16:59;101104.06;;;20.81;72.94
13709;BME280;54933;51.908;7.730;2023-01-10T08:19:24;101104.06;;;20.81;73.04
13709;BME280;54933;51.908;7.730;2023-01-10T08:21:49;101106.78;;;20.81;73.00
13709;BME280;54933;51.908;7.730;2023-01-10T08:24:15;101115.72;;;20.82;73.00
13709;BME280;54933;51.908;7.730;2023-01-10T08:26:40;101111.13;;;20.82;73.00
13709;BME280;54933;51.908;7.730;2023-01-10T08:29:05;101116.53;;;20.82;72.97
13709;BME280;54933;51.908;7.730;2023-01-10T08:31:31;101112.81;;;20.83;72.98
13709;BME280;54933;51.908;7.730;2023-01-10T08:33:56;101110.09;;;20.83;72.89
13709;BME280;54933;51.908;7.730;2023-01-10T08:36:21;101110.91;;;20.84;72.92
13709;BME280;54933;51.908;7.730;2023-01-10T08:38:48;101103.66;;;20.84;72.69
13709;BME280;54933;51.908;7.730;2023-01-10T08:41:15;101104.50;;;20.85;73.05
13709;BME280;54933;51.908;7.730;2023-01-10T08:43:40;101113.41;;;20.85;72.82
13709;BME280;54933;51.908;7.730;2023-01-10T08:46:05;101112.38;;;20.86;72.94
13709;BME280;54933;51.908;7.730;2023-01-10T08:48:31;101115.09;;;20.86;73.01
13709;BME280;54933;51.908;7.730;2023-01-10T08:50:56;101114.25;;;20.86;72.93
13709;BME280;54933;51.908;7.730;2023-01-10T08:53:22;101124.00;;;20.87;72.62
13709;BME280;54933;51.908;7.730;2023-01-10T08:55:48;101124.84;;;20.87;72.99
13709;BME280;54933;51.908;7.730;2023-01-10T08:58:13;101116.75;;;20.87;72.90
13709;BME280;54933;51.908;7.730;2023-01-10T09:00:39;101130.88;;;20.89;72.90
13709;BME280;54933;51.908;7.730;2023-01-10T09:03:05;101123.81;;;20.88;72.87
13709;BME280;54933;51.908;7.730;2023-01-10T09:05:31;101122.78;;;20.89;72.87
13709;BME280;54933;51.908;7.730;2023-01-10T09:07:58;101115.50;;;20.90;72.95
13709;BME280;54933;51.908;7.730;2023-01-10T09:10:24;101117.38;;;20.89;72.98
13709;BME280;54933;51.908;7.730;2023-01-10T09:12:50;101115.31;;;20.91;72.73
13709;BME280;54933;51.908;7.730;2023-01-10T09:17:55;101131.50;;;20.91;72.79
13709;BME280;54933;51.908;7.730;2023-01-10T09:20:23;101134.00;;;20.93;72.83
13709;BME280;54933;51.908;7.730;2023-01-10T09:22:49;101134.81;;;20.93;72.65
13709;BME280;54933;51.908;7.730;2023-01-10T09:25:15;101141.88;;;20.94;72.89
13709;BME280;54933;51.908;7.730;2023-01-10T09:27:40;101142.72;;;20.95;72.71
13709;BME280;54933;51.908;7.730;2023-01-10T09:30:06;101142.72;;;20.95;72.89
13709;BME280;54933;51.908;7.730;2023-01-10T09:32:32;101133.75;;;20.68;70.87
13709;BME280;54933;51.908;7.730;2023-01-10T09:34:57;101140.19;;;20.80;69.39
13709;BME280;54933;51.908;7.730;2023-01-10T09:37:22;101150.19;;;20.86;69.98
13709;BME280;54933;51.908;7.730;2023-01-10T09:39:47;101149.78;;;20.89;70.60
13709;BME280;54933;51.908;7.730;2023-01-10T09:42:36;101152.06;;;20.92;70.93
13709;BME280;54933;51.908;7.730;2023-01-10T09:45:16;101151.00;;;20.93;71.18
13709;BME280;54933;51.908;7.730;2023-01-10T09:47:54;101155.41;;;20.94;71.37
13709;BME280;54933;51.908;7.730;2023-01-10T09:51:01;101153.31;;;20.96;71.50
13709;BME280;54933;51.908;7.730;2023-01-10T09:53:31;101166.84;;;20.96;71.59
13709;BME280;54933;51.908;7.730;2023-01-10T09:55:58;101160.41;;;20.97;71.55
13709;BME280;54933;51.908;7.730;2023-01-10T09:58:27;101174.56;;;20.99;71.58
13709;BME280;54933;51.908;7.730;2023-01-10T10:00:59;101182.03;;;21.04;71.81
13709;BME280;54933;51.908;7.730;2023-01-10T10:03:53;101165.63;;;21.05;71.85
13709;BME280;54933;51.908;7.730;2023-01-10T10:06:23;101160.22;;;21.05;71.91
13709;BME280;54933;51.908;7.730;2023-01-10T10:08:49;101165.63;;;21.05;72.05
13709;BME280;54933;51.908;7.730;2023-01-10T10:17:05;101166.25;;;21.07;71.79
13709;BME280;54933;51.908;7.730;2023-01-10T10:22:17;101164.38;;;21.08;71.76
13709;BME280;54933;51.908;7.730;2023-01-10T10:25:03;101163.53;;;21.07;72.00
13709;BME280;54933;51.908;7.730;2023-01-10T10:38:57;101163.13;;;21.10;71.83
13709;BME280;54933;51.908;7.730;2023-01-10T10:41:33;101151.47;;;21.10;71.93
13709;BME280;54933;51.908;7.730;2023-01-10T10:44:01;101149.63;;;21.10;71.92
13709;BME280;54933;51.908;7.730;2023-01-10T10:46:31;101145.84;;;21.11;71.73
13709;BME280;54933;51.908;7.730;2023-01-10T10:48:58;101143.16;;;21.11;71.91
13709;BME280;54933;51.908;7.730;2023-01-10T10:51:42;101152.31;;;21.10;71.80
13709;BME280;54933;51.908;7.730;2023-01-10T10:54:12;101144.22;;;21.10;71.75
13709;BME280;54933;51.908;7.730;2023-01-10T10:56:38;101151.25;;;21.11;72.03
13709;BME280;54933;51.908;7.730;2023-01-10T10:59:04;101145.84;;;21.11;71.99
13709;BME280;54933;51.908;7.730;2023-01-10T11:01:30;101140.44;;;21.11;72.21
13709;BME280;54933;51.908;7.730;2023-01-10T11:04:08;101130.28;;;21.13;71.93
13709;BME280;54933;51.908;7.730;2023-01-10T11:06:35;101138.38;;;21.13;72.15
13709;BME280;54933;51.908;7.730;2023-01-10T11:09:03;101131.97;;;21.14;72.17
13709;BME280;54933;51.908;7.730;2023-01-10T11:11:32;101139.00;;;21.15;71.86
13709;BME280;54933;51.908;7.730;2023-01-10T11:13:59;101133.59;;;21.15;72.20
13709;BME280;54933;51.908;7.730;2023-01-10T11:16:28;101129.84;;;21.16;71.85
13709;BME280;54933;51.908;7.730;2023-01-10T11:19:18;101129.25;;;21.14;71.89
13709;BME280;54933;51.908;7.730;2023-01-10T11:21:47;101126.56;;;21.14;72.07
13709;BME280;54933;51.908;7.730;2023-01-10T11:24:24;101122.78;;;21.15;72.22
13709;BME280;54933;51.908;7.730;2023-01-10T11:26:50;101119.03;;;21.16;72.26
13709;BME280;54933;51.908;7.730;2023-01-10T11:29:49;101113.63;;;21.16;72.38
13709;BME280;54933;51.908;7.730;2023-01-10T11:32:21;101118.22;;;21.16;71.99
13709;BME280;54933;51.908;7.730;2023-01-10T11:34:50;101115.31;;;21.17;72.06
13709;BME280;54933;51.908;7.730;2023-01-10T11:37:25;101115.31;;;21.17;72.23
13709;BME280;54933;51.908;7.730;2023-01-10T11:42:44;101107.00;;;21.19;72.04
13709;BME280;54933;51.908;7.730;2023-01-10T11:50:18;101109.50;;;21.20;72.15
13709;BME280;54933;51.908;7.730;2023-01-10T11:52:45;101108.44;;;21.21;72.01
13709;BME280;54933;51.908;7.730;2023-01-10T11:55:24;101106.56;;;21.22;72.13
13709;BME280;54933;51.908;7.730;2023-01-10T11:58:11;101116.13;;;21.24;72.14
13709;BME280;54933;51.908;7.730;2023-01-10T12:00:48;101104.50;;;21.24;71.77
13709;BME280;54933;51.908;7.730;2023-01-10T12:03:28;101100.34;;;21.21;72.07
13709;BME280;54933;51.908;7.730;2023-01-10T12:05:59;101097.63;;;21.21;71.90
13709;BME280;54933;51.908;7.730;2023-01-10T12:08:27;101105.31;;;21.24;71.85
13709;BME280;54933;51.908;7.730;2023-01-10T12:10:58;101100.75;;;21.25;71.95
13709;BME280;54933;51.908;7.730;2023-01-10T12:13:26;101108.00;;;21.24;71.82
13709;BME280;54933;51.908;7.730;2023-01-10T12:16:13;101110.72;;;21.24;72.10
13709;BME280;54933;51.908;7.730;2023-01-10T12:18:39;101109.91;;;21.24;71.75
13709;BME280;54933;51.908;7.730;2023-01-10T12:21:05;101102.59;;;21.24;71.95
13709;BME280;54933;51.908;7.730;2023-01-10T12:23:32;101105.31;;;21.24;71.97
13709;BME280;54933;51.908;7.730;2023-01-10T12:26:04;101100.75;;;21.25;71.92
13709;BME280;54933;51.908;7.730;2023-01-10T12:28:30;101107.00;;;21.25;72.29
13709;BME280;54933;51.908;7.730;2023-01-10T12:30:58;101103.25;;;21.26;72.45
13709;BME280;54933;51.908;7.730;2023-01-10T12:33:32;101106.56;;;21.28;72.03
13709;BME280;54933;51.908;7.730;2023-01-10T12:36:04;101104.91;;;21.27;72.15
13709;BME280;54933;51.908;7.730;2023-01-10T12:41:29;101106.56;;;21.28;72.08
13709;BME280;54933;51.908;7.730;2023-01-10T12:44:24;101094.91;;;21.28;72.03
13709;BME280;54933;51.908;7.730;2023-01-10T12:46:59;101095.75;;;21.28;72.09
13709;BME280;54933;51.908;7.730;2023-01-10T12:49:32;101094.69;;;21.29;71.76
13709;BME280;54933;51.908;7.730;2023-01-10T12:52:03;101092.84;;;21.30;71.74
13709;BME280;54933;51.908;7.730;2023-01-10T12:54:30;101093.69;;;21.30;71.64
13709;BME280;54933;51.908;7.730;2023-01-10T12:56:57;101090.75;;;21.32;72.05
13709;BME280;54933;51.908;7.730;2023-01-10T12:59:31;101082.88;;;21.30;71.79
13709;BME280;54933;51.908;7.730;2023-01-10T13:02:04;101082.88;;;21.30;72.03
13709;BME280;54933;51.908;7.730;2023-01-10T13:04:33;101073.91;;;21.30;71.91
13709;BME280;54933;51.908;7.730;2023-01-10T13:07:01;101072.06;;;21.30;71.94
13709;BME280;54933;51.908;7.730;2023-01-10T13:09:28;101063.94;;;21.30;71.77
13709;BME280;54933;51.908;7.730;2023-01-10T13:12:02;101062.06;;;21.31;71.91
13709;BME280;54933;51.908;7.730;2023-01-10T13:14:36;101060.41;;;21.30;72.16
13709;BME280;54933;51.908;7.730;2023-01-10T13:17:32;101054.78;;;21.31;71.80
13709;BME280;54933;51.908;7.730;2023-01-10T13:20:17;101059.13;;;21.32;72.14
13709;BME280;54933;51.908;7.730;2023-01-10T13:22:46;101061.25;;;21.30;72.00
13709;BME280;54933;51.908;7.730;2023-01-10T13:25:28;101055.22;;;21.28;71.95
13709;BME280;54933;51.908;7.730;2023-01-10T13:28:05;101054.16;;;21.29;71.53
13709;BME280;54933;51.908;7.730;2023-01-10T13:30:38;101047.94;;;21.29;72.02
13709;BME280;54933;51.908;7.730;2023-01-10T13:35:54;101044.19;;;21.30;72.12
13709;BME280;54933;51.908;7.730;2023-01-10T13:38:38;101038.38;;;21.26;71.74
13709;BME280;54933;51.908;7.730;2023-01-10T13:41:09;101038.38;;;21.26;71.94
13709;BME280;54933;51.908;7.730;2023-01-10T13:51:21;101010.91;;;21.29;72.13
13709;BME280;54933;51.908;7.730;2023-01-10T13:53:53;101016.31;;;21.29;72.05
13709;BME280;54933;51.908;7.730;2023-01-10T13:56:46;101011.53;;;21.31;71.67
13709;BME280;54933;51.908;7.730;2023-01-10T14:02:25;100996.97;;;21.32;72.16
13709;BME280;54933;51.908;7.730;2023-01-10T14:04:59;100996.97;;;21.32;72.03
13709;BME280;54933;51.908;7.730;2023-01-10T14:07:30;100991.56;;;21.32;71.92
13709;BME280;54933;51.908;7.730;2023-01-10T14:10:04;100993.25;;;21.33;71.67
13709;BME280;54933;51.908;7.730;2023-01-10T14:12:38;100986.78;;;21.34;71.71
13709;BME280;54933;51.908;7.730;2023-01-10T14:15:30;100979.50;;;21.35;71.77
13709;BME280;54933;51.908;7.730;2023-01-10T14:18:03;100982.84;;;21.37;72.05